Bartlesville, OK

05:08 AM CDT del 21 Agosto 2014 (GMT -0500)
Bartlesville Municipal | Change Station
CLOSE
Current Station
Aeroporto
Location: Bartlesville,
Altitudine: 712 ft
Stazioni meteo nelle vicinanze

Alt. 712 ft 36.77 °N, 96.01 °W | Updated 15 minutes ago

Clear
Sereno
74 °F
Sembra 74 °F
N
5
Vento Variabile Vento da SSE

Oggi
Massima -- | Minima -- °F
--% Possibilità di precip.
Ieri
Massima -- | Minima -- °F
Precip. -- in
6:46 AM 8:07 PM
Luna calante, 15% visible
Pressione 29.90 in
Visibilità 10.0 miglia
Nuvole Sereno
Punto di rugiada 70 °F
Umidità 87%
Piovosità 0.00 in
Spessore del manto nevoso Non disponibile.
Raggi UV 0 fuori da 12
Polline 9.10 fuori da 12
Qualità dell'aria Non disponibile.
Flu Activity Non disponibile.
METAR KBVO 210953Z AUTO 16004KT 10SM CLR 23/21 A2993 RMK AO2 SLP123 T02330211

More Conditions Fewer Conditions

Pressione 29.90 in
Visibilità 10.0 miglia
Nuvole Sereno
Punto di rugiada 70 °F
Umidità 87%
Piovosità 0.00 in
Spessore del manto nevoso Non disponibile.
Raggi UV 0 fuori da 12
Polline 9.10 fuori da 12
Qualità dell'aria Non disponibile.
Flu Activity Non disponibile.
METAR KBVO 210953Z AUTO 16004KT 10SM CLR 23/21 A2993 RMK AO2 SLP123 T02330211

More Conditions Fewer Conditions

10-Day Weather Forecast

Almanac

Astronomia

Aug. 21, 2014 Alba Tramonto
Ora attuale 06:46 CDT 20:07 CDT
Crepuscolo civile 06:19 CDT 20:34 CDT
Crepuscolo nautico 05:46 CDT 21:06 CDT
Crepuscolo astronomico 05:12 CDT 21:40 CDT
Luna 03:19 CDT 17:34 CDT
Estensione della luce visibile 14h 15m
Lunghezza del giorno
13h 21m
Tomorrow will be 2m 8s shorter.
Luna calante, 15% of the Moon is Illuminated
Oggi
Luna calante
Ago 25
Nuovo
Set 2
Primo quarto
Set 8
Luna piena
Set 15
Ultimo quarto

Gli estremi di oggi

State Highs State Lows

Community

WunderPhotos

Upload Photos

1,745,871 foto caricate!

Nearby

Profondità neve

Stazione Profondità Altitudine
Non sono state evidenziate nuove nevicate

Attività sismica

Città  Distanza Mag. Data & Ora
Medford, Oklahoma 101 miglia 3.4 05:54 CDT
2014-08-16
Medford, Oklahoma 96 miglia 2.5 07:09 CDT
2014-08-15
Langston, Oklahoma 88 miglia 2.9 21:49 CDT
2014-08-14
Perry, Oklahoma 68 miglia 2.7 18:20 CDT
2014-08-14
Minimo Magnitudo Mostrato è 2.5.

Temperature delle acque costiere

Località Temperatura
Nessun dato dalle stazioni

Stazioni meteo nelle vicinanze